Time;durP1;ratioP1;P1;durP2;ratioP2;P2;SDS_P1;SDS_P2;PMS_P1;PMS_P2;Temp;Humidity;BMP_temperature;BMP_pressure;BME280_temperature;BME280_humidity;BME280_pressure;Samples;Min_cycle;Max_cycle;Signal;HPM_P1;HPM_P2
2022/11/14 00:00:42;;;;;;;169.40;34.40;;;;;;;;;;6318139;28;20251;-69
2022/11/14 00:03:49;;;;;;;199.18;34.03;;;;;;;;;;6317365;28;20044;-64
2022/11/14 00:06:50;;;;;;;148.23;36.85;;;;;;;;;;6317341;28;20052;-72
2022/11/14 00:09:51;;;;;;;157.65;36.40;;;;;;;;;;6317689;28;20819;-63
2022/11/14 00:12:51;;;;;;;143.18;40.03;;;;;;;;;;6318406;28;20066;-68
2022/11/14 00:15:53;;;;;;;178.07;37.58;;;;;;;;;;6311598;28;20094;-64
2022/11/14 00:18:53;;;;;;;193.10;41.10;;;;;;;;;;6314039;28;20052;-63
2022/11/14 00:21:54;;;;;;;147.90;40.75;;;;;;;;;;6317835;28;20063;-63
2022/11/14 00:24:55;;;;;;;152.95;35.15;;;;;;;;;;6303256;28;20734;-64
2022/11/14 00:27:57;;;;;;;153.07;36.63;;;;;;;;;;6312259;28;20050;-63
2022/11/14 00:30:58;;;;;;;145.73;33.50;;;;;;;;;;6311936;28;20097;-66
2022/11/14 00:33:58;;;;;;;174.98;38.55;;;;;;;;;;6317527;28;20090;-63
2022/11/14 00:37:00;;;;;;;151.93;34.58;;;;;;;;;;6314899;28;20047;-63
2022/11/14 00:40:00;;;;;;;135.27;34.88;;;;;;;;;;6316610;28;20417;-66
2022/11/14 00:43:01;;;;;;;141.57;34.63;;;;;;;;;;6317810;28;20054;-63
2022/11/14 00:46:01;;;;;;;154.38;32.75;;;;;;;;;;6316726;28;20487;-63
2022/11/14 00:49:02;;;;;;;136.05;35.35;;;;;;;;;;6316031;28;20047;-65
2022/11/14 00:52:03;;;;;;;124.90;34.53;;;;;;;;;;6316805;28;20039;-65
2022/11/14 00:55:04;;;;;;;124.40;32.67;;;;;;;;;;6317060;28;20044;-65
2022/11/14 00:58:05;;;;;;;136.88;37.78;;;;;;;;;;6315308;28;20063;-64
2022/11/14 01:01:05;;;;;;;145.60;35.35;;;;;;;;;;6316539;28;20590;-65
2022/11/14 01:04:06;;;;;;;129.77;34.17;;;;;;;;;;6317494;28;20048;-73
2022/11/14 01:07:07;;;;;;;167.95;43.85;;;;;;;;;;6316184;28;20121;-70
2022/11/14 01:10:08;;;;;;;161.07;41.38;;;;;;;;;;6314727;28;20463;-65
2022/11/14 01:13:10;;;;;;;157.73;34.92;;;;;;;;;;6317816;28;20044;-71
2022/11/14 01:16:11;;;;;;;152.70;34.58;;;;;;;;;;6316905;28;20060;-73
2022/11/14 01:19:12;;;;;;;144.05;34.38;;;;;;;;;;6315904;28;20052;-65
2022/11/14 01:22:12;;;;;;;138.75;36.78;;;;;;;;;;6316855;28;20048;-65
2022/11/14 01:25:13;;;;;;;147.10;31.98;;;;;;;;;;6317838;28;20048;-66
2022/11/14 01:28:16;;;;;;;201.80;35.17;;;;;;;;;;6315589;28;20486;-65
2022/11/14 01:31:22;;;;;;;163.93;36.72;;;;;;;;;;6316100;28;20452;-72
2022/11/14 01:34:23;;;;;;;149.27;34.92;;;;;;;;;;6316259;28;20387;-68
2022/11/14 01:37:23;;;;;;;173.18;37.55;;;;;;;;;;6315206;28;20059;-64
2022/11/14 01:40:24;;;;;;;163.60;32.65;;;;;;;;;;6315631;28;20044;-65
2022/11/14 01:43:28;;;;;;;160.07;32.60;;;;;;;;;;6316522;28;20046;-64
2022/11/14 01:46:39;;;;;;;150.45;32.72;;;;;;;;;;6316025;28;20558;-64
2022/11/14 01:49:46;;;;;;;172.88;35.65;;;;;;;;;;6314489;28;20453;-64
2022/11/14 01:52:46;;;;;;;178.05;36.85;;;;;;;;;;6316108;28;20431;-64
2022/11/14 01:55:47;;;;;;;142.93;34.13;;;;;;;;;;6315838;28;20039;-67
2022/11/14 01:58:53;;;;;;;171.57;38.05;;;;;;;;;;6315068;28;20089;-63
2022/11/14 02:01:56;;;;;;;190.02;36.20;;;;;;;;;;6315789;28;20455;-67
2022/11/14 02:05:05;;;;;;;148.98;37.58;;;;;;;;;;6316768;28;20414;-64
2022/11/14 02:08:09;;;;;;;166.93;37.92;;;;;;;;;;6316888;28;20048;-64
2022/11/14 02:11:10;;;;;;;168.23;35.25;;;;;;;;;;6315325;28;20577;-63
2022/11/14 02:14:11;;;;;;;;;;;;;;;;;;6317098;28;20399;-64
2022/11/14 02:17:14;;;;;;;164.20;32.28;;;;;;;;;;6316698;28;19920;-64
2022/11/14 02:20:23;;;;;;;138.77;34.63;;;;;;;;;;6315070;28;20040;-64
2022/11/14 02:23:28;;;;;;;148.40;35.72;;;;;;;;;;6314892;28;20056;-64
2022/11/14 02:26:29;;;;;;;135.45;32.78;;;;;;;;;;6316542;28;20105;-64
2022/11/14 02:29:31;;;;;;;190.95;37.22;;;;;;;;;;6319958;28;20048;-64
2022/11/14 02:32:32;;;;;;;166.15;35.75;;;;;;;;;;6318995;28;20048;-64
2022/11/14 02:35:32;;;;;;;154.82;39.88;;;;;;;;;;6320353;28;20485;-64
2022/11/14 02:38:33;;;;;;;143.57;33.60;;;;;;;;;;6320416;28;20083;-64
2022/11/14 02:41:33;;;;;;;149.57;33.83;;;;;;;;;;6318926;28;20048;-64
2022/11/14 02:44:34;;;;;;;162.13;36.63;;;;;;;;;;6319801;28;20123;-64
2022/11/14 02:47:34;;;;;;;142.77;29.15;;;;;;;;;;6319914;28;20052;-64
2022/11/14 02:50:35;;;;;;;116.68;30.38;;;;;;;;;;6319019;28;20052;-64
2022/11/14 02:53:36;;;;;;;181.88;30.25;;;;;;;;;;6319669;28;20048;-64
2022/11/14 02:56:36;;;;;;;120.18;30.90;;;;;;;;;;6319652;28;20083;-64
2022/11/14 02:59:37;;;;;;;142.25;28.75;;;;;;;;;;6319726;28;20040;-64
2022/11/14 03:02:37;;;;;;;145.10;36.50;;;;;;;;;;6318559;28;20063;-64
2022/11/14 03:05:38;;;;;;;126.40;30.13;;;;;;;;;;6319901;28;20048;-64
2022/11/14 03:08:39;;;;;;;184.55;39.40;;;;;;;;;;6319779;28;20078;-64
2022/11/14 03:11:39;;;;;;;110.25;28.65;;;;;;;;;;6318138;28;20418;-64
2022/11/14 03:14:40;;;;;;;148.00;32.88;;;;;;;;;;6319095;28;20048;-65
2022/11/14 03:17:40;;;;;;;133.38;28.58;;;;;;;;;;6310555;28;20059;-64
2022/11/14 03:20:41;;;;;;;110.30;28.25;;;;;;;;;;6315833;28;20075;-65
2022/11/14 03:23:42;;;;;;;124.82;28.70;;;;;;;;;;6317108;28;20035;-64
2022/11/14 03:26:42;;;;;;;132.98;31.13;;;;;;;;;;6319521;28;20413;-64
2022/11/14 03:29:43;;;;;;;137.45;29.83;;;;;;;;;;6318769;28;20097;-64
2022/11/14 03:32:44;;;;;;;128.05;26.77;;;;;;;;;;6315244;28;20044;-64
2022/11/14 03:35:44;;;;;;;124.00;26.17;;;;;;;;;;6319477;28;20047;-64
2022/11/14 03:38:45;;;;;;;95.38;27.73;;;;;;;;;;6318172;28;20067;-64
2022/11/14 03:41:45;;;;;;;106.38;26.27;;;;;;;;;;6316163;28;20048;-64
2022/11/14 03:44:46;;;;;;;108.20;26.38;;;;;;;;;;6319405;28;20047;-64
2022/11/14 03:47:46;;;;;;;104.82;27.25;;;;;;;;;;6318948;28;20093;-64
2022/11/14 03:50:47;;;;;;;130.02;30.00;;;;;;;;;;6317252;28;20044;-65
2022/11/14 03:53:47;;;;;;;128.95;25.85;;;;;;;;;;6318673;28;20051;-63
2022/11/14 03:56:48;;;;;;;120.57;28.05;;;;;;;;;;6318435;28;20097;-64
2022/11/14 03:59:49;;;;;;;116.38;27.05;;;;;;;;;;6317489;28;20380;-64
2022/11/14 04:02:49;;;;;;;97.80;27.35;;;;;;;;;;6317234;28;20119;-64
2022/11/14 04:05:50;;;;;;;113.63;25.20;;;;;;;;;;6318439;28;20048;-64
2022/11/14 04:08:51;;;;;;;90.20;26.83;;;;;;;;;;6317764;28;20112;-64
2022/11/14 04:11:51;;;;;;;103.80;26.98;;;;;;;;;;6298603;28;20043;-65
2022/11/14 04:14:52;;;;;;;96.30;27.58;;;;;;;;;;6317748;28;20040;-64
2022/11/14 04:17:52;;;;;;;84.63;24.33;;;;;;;;;;6317756;28;20071;-64
2022/11/14 04:20:53;;;;;;;81.28;24.30;;;;;;;;;;6316460;28;20054;-64
2022/11/14 04:23:53;;;;;;;104.20;22.80;;;;;;;;;;6317613;28;20407;-64
2022/11/14 04:26:54;;;;;;;91.78;21.83;;;;;;;;;;6317677;28;20134;-64
2022/11/14 04:29:54;;;;;;;97.85;21.95;;;;;;;;;;6316504;28;20551;-64
2022/11/14 04:32:55;;;;;;;117.18;23.95;;;;;;;;;;6316805;28;20044;-64
2022/11/14 04:35:56;;;;;;;89.70;23.08;;;;;;;;;;6317654;28;20039;-64
2022/11/14 04:38:56;;;;;;;109.32;29.73;;;;;;;;;;6316917;28;20079;-64
2022/11/14 04:41:57;;;;;;;74.53;23.85;;;;;;;;;;6316509;28;20048;-64
2022/11/14 04:44:58;;;;;;;88.55;25.92;;;;;;;;;;6317347;28;20043;-64
2022/11/14 04:47:58;;;;;;;104.18;29.20;;;;;;;;;;6317147;28;20044;-64
2022/11/14 04:50:59;;;;;;;95.35;24.50;;;;;;;;;;6314978;28;20078;-65
2022/11/14 04:53:59;;;;;;;101.07;22.23;;;;;;;;;;6317399;28;20512;-64
2022/11/14 04:57:00;;;;;;;118.13;24.08;;;;;;;;;;6317119;28;20067;-64
2022/11/14 05:00:00;;;;;;;94.57;22.40;;;;;;;;;;6315798;28;20564;-64
2022/11/14 05:03:01;;;;;;;77.05;22.65;;;;;;;;;;6313156;28;20040;-64
2022/11/14 05:06:02;;;;;;;90.47;22.75;;;;;;;;;;6317062;28;20046;-64
2022/11/14 05:09:03;;;;;;;144.35;25.77;;;;;;;;;;6316228;28;20040;-64
2022/11/14 05:12:04;;;;;;;103.63;25.27;;;;;;;;;;6315530;28;20048;-64
2022/11/14 05:15:06;;;;;;;105.03;22.17;;;;;;;;;;6314095;28;20090;-64
2022/11/14 05:18:06;;;;;;;93.97;23.30;;;;;;;;;;6316764;28;20040;-64
2022/11/14 05:21:13;;;;;;;102.55;24.55;;;;;;;;;;6315070;28;20051;-64
2022/11/14 05:24:13;;;;;;;85.53;23.40;;;;;;;;;;6314897;28;20060;-64
2022/11/14 05:27:14;;;;;;;99.60;24.60;;;;;;;;;;6291061;28;20036;-64
2022/11/14 05:30:15;;;;;;;80.03;22.30;;;;;;;;;;6288787;28;20040;-65
2022/11/14 05:33:16;;;;;;;80.65;22.45;;;;;;;;;;6290399;28;20043;-69
2022/11/14 05:36:16;;;;;;;87.20;23.00;;;;;;;;;;6288021;28;20407;-64
2022/11/14 05:39:17;;;;;;;118.03;23.17;;;;;;;;;;6289873;28;20048;-65
2022/11/14 05:42:17;;;;;;;96.05;23.63;;;;;;;;;;6291108;28;20448;-64
2022/11/14 05:45:18;;;;;;;74.22;20.73;;;;;;;;;;6290732;28;20127;-65
2022/11/14 05:48:19;;;;;;;120.05;23.80;;;;;;;;;;6291015;28;20044;-64
2022/11/14 05:51:20;;;;;;;125.60;25.90;;;;;;;;;;6291105;28;20053;-65
2022/11/14 05:54:21;;;;;;;89.07;25.00;;;;;;;;;;6300298;28;20052;-64
2022/11/14 05:57:22;;;;;;;113.80;24.08;;;;;;;;;;6291723;28;20486;-65
2022/11/14 06:00:22;;;;;;;101.97;23.85;;;;;;;;;;6299714;28;20067;-64
2022/11/14 06:03:23;;;;;;;103.10;24.45;;;;;;;;;;6294926;28;20170;-65
2022/11/14 06:06:24;;;;;;;116.63;37.08;;;;;;;;;;6297111;28;20052;-65
2022/11/14 06:09:24;;;;;;;88.28;25.30;;;;;;;;;;6293113;28;20048;-64
2022/11/14 06:12:25;;;;;;;131.23;35.38;;;;;;;;;;6299205;28;20040;-72
2022/11/14 06:15:26;;;;;;;83.53;21.27;;;;;;;;;;6290407;28;20048;-64
2022/11/14 06:18:27;;;;;;;77.28;23.23;;;;;;;;;;6311266;28;20105;-62
2022/11/14 06:21:28;;;;;;;96.78;24.23;;;;;;;;;;6316709;28;20479;-66
2022/11/14 06:24:29;;;;;;;90.85;22.30;;;;;;;;;;6304800;28;20094;-62
2022/11/14 06:27:29;;;;;;;84.07;21.08;;;;;;;;;;6316177;28;20044;-65
2022/11/14 06:30:30;;;;;;;84.30;21.80;;;;;;;;;;6313263;28;20487;-62
2022/11/14 06:33:35;;;;;;;102.43;24.33;;;;;;;;;;6319400;28;20098;-64
2022/11/14 06:36:36;;;;;;;108.05;28.13;;;;;;;;;;6320568;28;20458;-62
2022/11/14 06:39:37;;;;;;;103.28;26.88;;;;;;;;;;6317735;28;20048;-62
2022/11/14 06:42:37;;;;;;;94.32;25.00;;;;;;;;;;6310032;28;20040;-61
2022/11/14 06:45:38;;;;;;;88.88;25.33;;;;;;;;;;6315632;28;20453;-62
2022/11/14 06:48:39;;;;;;;86.32;25.15;;;;;;;;;;6319830;28;20044;-67
2022/11/14 06:51:40;;;;;;;83.68;25.77;;;;;;;;;;6311499;28;20714;-62
2022/11/14 06:54:40;;;;;;;87.40;23.13;;;;;;;;;;6315180;28;20048;-62
2022/11/14 06:57:41;;;;;;;95.90;32.88;;;;;;;;;;6310398;28;20081;-62
2022/11/14 07:00:41;;;;;;;91.38;30.40;;;;;;;;;;6307030;28;20053;-66
2022/11/14 07:03:43;;;;;;;85.80;22.33;;;;;;;;;;6314998;28;20791;-66
2022/11/14 07:06:43;;;;;;;84.10;25.10;;;;;;;;;;6306788;28;20052;-63
2022/11/14 07:09:44;;;;;;;88.45;22.23;;;;;;;;;;6319438;28;20474;-64
2022/11/14 07:12:45;;;;;;;82.05;25.05;;;;;;;;;;6315526;28;20042;-62
2022/11/14 07:15:50;;;;;;;89.07;23.38;;;;;;;;;;6300994;28;20060;-67
2022/11/14 07:18:51;;;;;;;110.78;30.50;;;;;;;;;;6307900;28;20044;-61
2022/11/14 07:21:51;;;;;;;77.75;22.10;;;;;;;;;;6312707;28;20063;-64
2022/11/14 07:24:52;;;;;;;78.07;22.85;;;;;;;;;;6292531;28;20041;-61
2022/11/14 07:27:52;;;;;;;91.88;26.50;;;;;;;;;;6294673;28;20146;-62
2022/11/14 07:30:53;;;;;;;78.35;23.90;;;;;;;;;;6292210;28;20040;-68
2022/11/14 07:33:54;;;;;;;97.55;25.30;;;;;;;;;;6292458;28;20631;-61
2022/11/14 07:36:54;;;;;;;84.10;22.65;;;;;;;;;;6294199;28;20051;-69
2022/11/14 07:39:55;;;;;;;85.45;27.58;;;;;;;;;;6295088;28;20130;-67
2022/11/14 07:42:58;;;;;;;77.25;21.92;;;;;;;;;;6306069;28;20040;-62
2022/11/14 07:46:03;;;;;;;79.20;26.42;;;;;;;;;;6290578;28;20121;-61
2022/11/14 07:49:04;;;;;;;77.07;27.08;;;;;;;;;;6288282;28;20059;-61
2022/11/14 07:52:04;;;;;;;96.63;31.85;;;;;;;;;;6290628;28;20048;-61
2022/11/14 07:55:05;;;;;;;74.90;25.02;;;;;;;;;;6308132;28;20525;-61
2022/11/14 07:58:06;;;;;;;80.03;23.60;;;;;;;;;;6291267;28;20059;-62
2022/11/14 08:01:09;;;;;;;91.47;24.52;;;;;;;;;;6289206;28;20041;-61
2022/11/14 08:04:09;;;;;;;71.45;20.25;;;;;;;;;;6293201;28;20036;-62
2022/11/14 08:07:10;;;;;;;78.03;22.35;;;;;;;;;;6292358;28;20058;-61
2022/11/14 08:10:12;;;;;;;70.35;20.90;;;;;;;;;;6293846;28;20755;-61
2022/11/14 08:13:13;;;;;;;;;;;;;;;;;;6294468;28;20044;-61
2022/11/14 08:16:14;;;;;;;67.25;19.90;;;;;;;;;;6295316;28;19921;-65
2022/11/14 08:19:15;;;;;;;79.63;23.92;;;;;;;;;;6296045;28;20043;-61
2022/11/14 08:22:16;;;;;;;76.00;21.90;;;;;;;;;;6292825;28;20482;-62
2022/11/14 08:25:16;;;;;;;86.10;22.77;;;;;;;;;;6291800;28;20055;-61
2022/11/14 08:28:17;;;;;;;82.20;20.67;;;;;;;;;;6297132;28;20048;-62
2022/11/14 08:31:17;;;;;;;87.32;21.88;;;;;;;;;;6300298;28;20056;-62
2022/11/14 08:34:19;;;;;;;101.88;26.52;;;;;;;;;;6292532;28;20410;-61
2022/11/14 08:37:20;;;;;;;95.85;30.05;;;;;;;;;;6289961;28;20091;-61
2022/11/14 08:40:20;;;;;;;80.93;24.73;;;;;;;;;;6291709;28;20045;-61
2022/11/14 08:43:21;;;;;;;111.82;30.63;;;;;;;;;;6290844;28;20051;-61
2022/11/14 08:46:22;;;;;;;96.82;26.90;;;;;;;;;;6291013;28;20448;-61
2022/11/14 08:49:22;;;;;;;103.40;29.52;;;;;;;;;;6299507;28;20052;-61
2022/11/14 08:52:23;;;;;;;95.57;27.02;;;;;;;;;;6299078;28;20121;-61
2022/11/14 08:55:23;;;;;;;74.25;22.48;;;;;;;;;;6304784;28;20475;-61
2022/11/14 08:58:29;;;;;;;73.72;24.25;;;;;;;;;;6294797;28;20110;-65
2022/11/14 09:01:31;;;;;;;81.97;26.33;;;;;;;;;;6289380;28;20045;-61
2022/11/14 09:04:32;;;;;;;80.97;24.13;;;;;;;;;;6291548;28;20438;-61
2022/11/14 09:07:32;;;;;;;82.40;24.25;;;;;;;;;;6291223;28;20051;-61
2022/11/14 09:10:33;;;;;;;82.97;24.20;;;;;;;;;;6292080;28;20136;-61
2022/11/14 09:13:34;;;;;;;85.57;25.25;;;;;;;;;;6291967;28;20040;-61
2022/11/14 09:16:35;;;;;;;78.55;23.23;;;;;;;;;;6292717;28;20043;-61
2022/11/14 09:19:35;;;;;;;83.00;23.67;;;;;;;;;;6292683;28;20044;-61
2022/11/14 09:22:36;;;;;;;76.90;23.73;;;;;;;;;;6289482;28;20041;-61
2022/11/14 09:25:37;;;;;;;87.97;23.25;;;;;;;;;;6292237;28;20430;-63
2022/11/14 09:28:38;;;;;;;76.40;21.83;;;;;;;;;;6305570;28;20051;-61
2022/11/14 09:31:38;;;;;;;75.97;23.05;;;;;;;;;;6300388;28;20558;-61
2022/11/14 09:34:42;;;;;;;77.47;26.70;;;;;;;;;;6293548;28;20055;-61
2022/11/14 09:37:42;;;;;;;80.88;25.38;;;;;;;;;;6293884;28;20052;-62
2022/11/14 09:41:23;;;;;;;72.68;24.40;;;;;;;;;;6291117;28;20097;-66
2022/11/14 09:44:26;;;;;;;72.25;25.35;;;;;;;;;;6289575;28;20044;-63
2022/11/14 09:47:33;;;;;;;87.95;29.65;;;;;;;;;;6291423;28;20132;-66
2022/11/14 09:50:39;;;;;;;92.75;32.20;;;;;;;;;;6295251;28;20067;-61
2022/11/14 09:53:49;;;;;;;96.63;30.38;;;;;;;;;;6292158;28;20047;-62
2022/11/14 09:56:50;;;;;;;92.40;32.05;;;;;;;;;;6288376;28;20051;-62
2022/11/14 09:59:51;;;;;;;89.57;28.33;;;;;;;;;;6291880;28;20048;-62
2022/11/14 10:02:54;;;;;;;88.88;25.30;;;;;;;;;;6291842;28;20056;-62
2022/11/14 10:06:18;;;;;;;88.90;27.58;;;;;;;;;;6285106;28;20044;-61
2022/11/14 10:09:32;;;;;;;84.72;27.00;;;;;;;;;;6284298;28;20071;-61
2022/11/14 10:13:05;;;;;;;84.18;30.10;;;;;;;;;;6288114;28;20040;-61
2022/11/14 10:16:35;;;;;;;81.10;28.67;;;;;;;;;;6288032;28;20625;-61
2022/11/14 10:19:52;;;;;;;81.30;28.23;;;;;;;;;;6289026;28;20731;-62
2022/11/14 10:23:04;;;;;;;79.50;27.23;;;;;;;;;;6288092;28;20044;-61
2022/11/14 10:26:25;;;;;;;86.13;30.98;;;;;;;;;;6290091;28;20050;-61
2022/11/14 10:29:37;;;;;;;85.60;28.50;;;;;;;;;;6291191;28;20045;-62
2022/11/14 10:33:16;;;;;;;78.60;27.27;;;;;;;;;;6289412;28;20040;-62
2022/11/14 10:36:25;;;;;;;83.20;31.48;;;;;;;;;;6255884;28;20478;-61
2022/11/14 10:39:37;;;;;;;97.25;37.42;;;;;;;;;;6289479;28;20039;-61
2022/11/14 10:42:40;;;;;;;95.10;31.08;;;;;;;;;;6291655;28;20374;-61
2022/11/14 10:45:51;;;;;;;96.40;31.90;;;;;;;;;;6291010;28;20055;-61
2022/11/14 10:48:52;;;;;;;96.03;32.88;;;;;;;;;;6292291;28;20541;-61
2022/11/14 10:51:56;;;;;;;94.95;29.02;;;;;;;;;;6299715;28;20067;-61
2022/11/14 10:55:06;;;;;;;99.68;32.15;;;;;;;;;;6294592;28;21092;-62
2022/11/14 10:58:12;;;;;;;84.22;29.25;;;;;;;;;;6293527;28;20069;-63
2022/11/14 11:01:32;;;;;;;88.30;28.83;;;;;;;;;;6290508;28;20090;-61
2022/11/14 11:04:36;;;;;;;101.47;33.83;;;;;;;;;;6296354;28;20044;-61
2022/11/14 11:14:23;;;;;;;84.95;29.02;;;;;;;;;;6292898;28;20143;-62
2022/11/14 11:17:23;;;;;;;104.75;33.55;;;;;;;;;;6295092;28;20176;-61
2022/11/14 11:20:24;;;;;;;102.63;32.35;;;;;;;;;;6295838;28;20055;-61
2022/11/14 11:23:26;;;;;;;101.72;33.08;;;;;;;;;;6293812;28;20544;-62
2022/11/14 11:26:31;;;;;;;98.18;33.38;;;;;;;;;;6298597;28;20050;-62
2022/11/14 11:29:32;;;;;;;88.30;30.52;;;;;;;;;;6297277;28;20453;-61
2022/11/14 11:32:32;;;;;;;92.65;31.80;;;;;;;;;;6292212;28;20102;-61
2022/11/14 11:35:34;;;;;;;112.45;36.03;;;;;;;;;;6296594;28;20159;-61
2022/11/14 11:38:34;;;;;;;100.10;33.65;;;;;;;;;;6292498;28;20069;-66
2022/11/14 11:41:36;;;;;;;102.70;35.15;;;;;;;;;;6295751;28;20135;-62
2022/11/14 11:44:44;;;;;;;90.60;34.27;;;;;;;;;;6295329;28;20524;-61
2022/11/14 11:48:07;;;;;;;83.75;28.45;;;;;;;;;;6294882;28;20303;-62
2022/11/14 11:51:18;;;;;;;84.68;30.88;;;;;;;;;;6292093;28;20071;-61
2022/11/14 11:54:23;;;;;;;93.03;30.40;;;;;;;;;;6290165;28;20097;-62
2022/11/14 11:57:32;;;;;;;87.55;28.50;;;;;;;;;;6291932;28;20143;-62
2022/11/14 12:00:33;;;;;;;94.05;31.50;;;;;;;;;;6294520;28;20040;-61
2022/11/14 12:03:33;;;;;;;104.15;33.95;;;;;;;;;;6295586;28;20516;-62
2022/11/14 12:06:53;;;;;;;102.75;37.05;;;;;;;;;;6277472;28;20188;-68
2022/11/14 12:09:54;;;;;;;97.78;34.58;;;;;;;;;;6294240;28;20048;-62
2022/11/14 12:13:06;;;;;;;83.37;29.53;;;;;;;;;;6296949;28;20041;-61
2022/11/14 12:16:22;;;;;;;96.32;32.85;;;;;;;;;;6293108;28;20119;-63
2022/11/14 12:19:36;;;;;;;102.85;35.65;;;;;;;;;;6300359;28;20055;-62
2022/11/14 12:22:54;;;;;;;98.88;33.42;;;;;;;;;;6298653;28;20051;-62
2022/11/14 12:26:00;;;;;;;99.25;33.22;;;;;;;;;;6290527;28;20052;-61
2022/11/14 12:29:17;;;;;;;106.93;33.13;;;;;;;;;;6292966;28;20056;-62
2022/11/14 12:32:28;;;;;;;89.72;30.00;;;;;;;;;;6291249;28;20052;-62
2022/11/14 12:35:31;;;;;;;96.75;32.53;;;;;;;;;;6292705;28;20048;-61
2022/11/14 12:38:48;;;;;;;84.75;28.35;;;;;;;;;;6303235;28;20490;-62
2022/11/14 12:41:48;;;;;;;101.10;32.53;;;;;;;;;;6294380;28;20055;-62
2022/11/14 12:44:49;;;;;;;96.40;33.00;;;;;;;;;;6296196;28;20040;-66
2022/11/14 12:48:27;;;;;;;97.07;32.55;;;;;;;;;;6291960;28;20446;-61
2022/11/14 12:51:34;;;;;;;98.70;31.70;;;;;;;;;;6292028;28;20366;-62
2022/11/14 12:54:46;;;;;;;98.18;32.55;;;;;;;;;;6292456;28;20044;-63
2022/11/14 12:58:26;;;;;;;103.60;38.63;;;;;;;;;;6294229;28;20055;-64
2022/11/14 13:01:29;;;;;;;100.25;30.77;;;;;;;;;;6292013;28;20311;-62
2022/11/14 13:04:38;;;;;;;102.38;34.25;;;;;;;;;;6293947;28;20037;-62
2022/11/14 13:08:24;;;;;;;103.10;33.78;;;;;;;;;;6293752;28;20536;-62
2022/11/14 13:22:43;;;;;;;85.95;30.73;;;;;;;;;;6292750;28;20123;-61
2022/11/14 13:25:44;;;;;;;83.00;29.48;;;;;;;;;;6293295;28;20051;-70
2022/11/14 13:28:49;;;;;;;81.43;28.30;;;;;;;;;;6293589;28;20475;-61
2022/11/14 13:31:51;;;;;;;84.95;30.98;;;;;;;;;;6290789;28;20434;-60
2022/11/14 13:35:03;;;;;;;81.60;29.45;;;;;;;;;;6293667;28;20134;-59
2022/11/14 13:38:23;;;;;;;84.50;27.70;;;;;;;;;;6294049;28;20040;-61
2022/11/14 13:41:54;;;;;;;93.75;32.03;;;;;;;;;;6289643;28;20418;-62
2022/11/14 13:45:17;;;;;;;79.53;29.40;;;;;;;;;;6292880;28;20040;-61
2022/11/14 13:48:26;;;;;;;85.22;29.77;;;;;;;;;;6290877;28;20558;-61
2022/11/14 13:51:28;;;;;;;92.10;30.63;;;;;;;;;;6291906;28;20059;-61
2022/11/14 13:54:29;;;;;;;91.40;30.63;;;;;;;;;;6294912;28;20650;-62
2022/11/14 13:57:57;;;;;;;79.05;27.50;;;;;;;;;;6292938;28;20148;-61
2022/11/14 14:01:13;;;;;;;85.30;30.45;;;;;;;;;;6288471;28;20059;-61
2022/11/14 14:04:53;;;;;;;91.15;31.17;;;;;;;;;;6301398;28;20059;-61
2022/11/14 14:08:06;;;;;;;87.22;29.88;;;;;;;;;;6292509;28;20052;-62
2022/11/14 14:11:24;;;;;;;99.65;33.35;;;;;;;;;;6288920;28;20046;-61
2022/11/14 14:14:54;;;;;;;100.05;32.60;;;;;;;;;;6290197;28;20055;-61
2022/11/14 14:18:09;;;;;;;97.72;32.22;;;;;;;;;;6291850;28;20048;-60
2022/11/14 14:21:17;;;;;;;96.82;29.75;;;;;;;;;;6290047;28;20049;-63
2022/11/14 14:24:45;;;;;;;102.30;33.63;;;;;;;;;;6289148;28;20052;-62
2022/11/14 14:27:56;;;;;;;100.80;32.22;;;;;;;;;;6275840;28;20136;-63
2022/11/14 14:31:09;;;;;;;96.22;31.33;;;;;;;;;;6278234;28;20064;-63
2022/11/14 14:34:30;;;;;;;103.80;31.92;;;;;;;;;;6274742;28;20538;-68
2022/11/14 14:37:31;;;;;;;94.17;30.97;;;;;;;;;;6279244;28;20049;-64
2022/11/14 14:40:34;;;;;;;91.75;30.42;;;;;;;;;;6278695;28;20142;-63
2022/11/14 14:43:34;;;;;;;106.30;31.73;;;;;;;;;;6278475;28;20070;-65
2022/11/14 14:46:35;;;;;;;94.18;31.30;;;;;;;;;;6278937;28;20048;-67
2022/11/14 14:49:37;;;;;;;104.20;33.45;;;;;;;;;;6281988;28;20036;-65
2022/11/14 14:52:38;;;;;;;116.90;39.33;;;;;;;;;;6277488;28;20051;-67
2022/11/14 14:55:38;;;;;;;97.32;31.80;;;;;;;;;;6275711;28;20063;-65
2022/11/14 14:58:39;;;;;;;99.32;33.58;;;;;;;;;;6278459;28;20062;-64
2022/11/14 15:01:40;;;;;;;103.93;33.03;;;;;;;;;;6281248;28;20063;-63
2022/11/14 15:04:40;;;;;;;176.82;61.38;;;;;;;;;;6280145;28;21185;-66
2022/11/14 15:07:41;;;;;;;108.22;35.78;;;;;;;;;;6285386;28;20049;-67
2022/11/14 15:10:42;;;;;;;117.60;38.30;;;;;;;;;;6278286;28;20048;-63
2022/11/14 15:13:44;;;;;;;109.13;33.50;;;;;;;;;;6280452;28;20052;-63
2022/11/14 15:16:48;;;;;;;;;;;;;;;;;;6277193;28;20487;-63
2022/11/14 15:19:51;;;;;;;117.05;32.75;;;;;;;;;;6278211;28;19951;-60
2022/11/14 15:23:17;;;;;;;104.75;31.90;;;;;;;;;;6280326;28;20559;-66
2022/11/14 15:26:18;;;;;;;120.63;33.00;;;;;;;;;;6275900;28;20105;-67
2022/11/14 15:29:20;;;;;;;106.85;31.95;;;;;;;;;;6276017;28;20056;-66
2022/11/14 15:32:22;;;;;;;;;;;;;;;;;;6280331;28;20585;-65
2022/11/14 15:35:22;;;;;;;97.17;31.07;;;;;;;;;;6275636;28;20029;-63
2022/11/14 15:38:24;;;;;;;114.75;34.38;;;;;;;;;;6278844;28;20044;-68
2022/11/14 15:41:28;;;;;;;115.07;37.58;;;;;;;;;;6281139;28;20052;-62
2022/11/14 15:44:33;;;;;;;112.82;34.45;;;;;;;;;;6275607;28;20041;-62
2022/11/14 15:47:38;;;;;;;101.70;33.30;;;;;;;;;;6279522;28;20063;-64
2022/11/14 15:50:39;;;;;;;102.43;33.20;;;;;;;;;;6277575;28;20048;-63
2022/11/14 15:53:45;;;;;;;118.00;35.90;;;;;;;;;;6280127;28;20055;-67
2022/11/14 15:56:46;;;;;;;112.25;33.95;;;;;;;;;;6278753;28;20294;-64
2022/11/14 15:59:46;;;;;;;100.20;31.35;;;;;;;;;;6276852;28;20592;-64
2022/11/14 16:02:51;;;;;;;101.63;33.25;;;;;;;;;;6277314;28;20053;-66
2022/11/14 16:05:51;;;;;;;107.30;31.20;;;;;;;;;;6274501;28;20126;-65
2022/11/14 16:08:52;;;;;;;92.32;29.77;;;;;;;;;;6279058;28;20080;-63
2022/11/14 16:11:53;;;;;;;91.85;29.50;;;;;;;;;;6278845;28;20053;-66
2022/11/14 16:14:53;;;;;;;104.22;33.10;;;;;;;;;;6282420;28;20101;-65
2022/11/14 16:17:54;;;;;;;101.97;32.42;;;;;;;;;;6287939;28;20044;-67
2022/11/14 16:20:58;;;;;;;105.38;33.85;;;;;;;;;;6286401;28;20052;-61
2022/11/14 16:23:58;;;;;;;114.70;37.30;;;;;;;;;;6278086;28;20135;-63
2022/11/14 16:26:59;;;;;;;93.03;32.78;;;;;;;;;;6279812;28;20117;-62
2022/11/14 16:30:00;;;;;;;101.90;32.80;;;;;;;;;;6274253;28;20044;-65
2022/11/14 16:33:00;;;;;;;109.18;37.13;;;;;;;;;;6277695;28;20101;-66
2022/11/14 16:36:01;;;;;;;125.97;37.83;;;;;;;;;;6275690;28;20549;-65
2022/11/14 16:39:02;;;;;;;148.57;43.80;;;;;;;;;;6275547;28;20077;-66
2022/11/14 16:42:04;;;;;;;147.30;45.53;;;;;;;;;;6276570;28;20146;-66
2022/11/14 16:45:06;;;;;;;169.02;52.85;;;;;;;;;;6278035;28;20191;-65
2022/11/14 16:48:07;;;;;;;153.57;46.20;;;;;;;;;;6279277;28;20044;-67
2022/11/14 16:51:08;;;;;;;158.35;50.53;;;;;;;;;;6282974;28;20116;-67
2022/11/14 16:54:12;;;;;;;173.63;51.92;;;;;;;;;;6278513;28;20036;-67
2022/11/14 16:57:13;;;;;;;175.27;53.25;;;;;;;;;;6280615;28;20196;-68
2022/11/14 17:00:13;;;;;;;144.40;43.20;;;;;;;;;;6281126;28;20048;-68
2022/11/14 17:03:14;;;;;;;138.93;41.63;;;;;;;;;;6280654;28;20673;-62
2022/11/14 17:06:15;;;;;;;164.52;44.88;;;;;;;;;;6281399;28;20048;-64
2022/11/14 17:09:16;;;;;;;144.63;40.13;;;;;;;;;;6279040;28;20087;-65
2022/11/14 17:12:16;;;;;;;165.70;43.10;;;;;;;;;;6278873;28;20052;-62
2022/11/14 17:15:17;;;;;;;145.20;40.30;;;;;;;;;;6278213;28;20499;-67
2022/11/14 17:18:17;;;;;;;130.48;38.33;;;;;;;;;;6283773;28;20055;-63
2022/11/14 17:21:18;;;;;;;145.68;42.50;;;;;;;;;;6268320;28;20060;-65
2022/11/14 17:24:19;;;;;;;162.32;49.17;;;;;;;;;;6280579;28;20044;-65
2022/11/14 17:27:19;;;;;;;152.45;42.75;;;;;;;;;;6282531;28;20482;-65
2022/11/14 17:30:20;;;;;;;164.70;45.63;;;;;;;;;;6279835;28;20063;-64
2022/11/14 17:33:20;;;;;;;141.65;40.75;;;;;;;;;;6284041;28;20048;-64
2022/11/14 17:36:22;;;;;;;154.15;42.72;;;;;;;;;;6278072;28;20044;-64
2022/11/14 17:39:23;;;;;;;142.50;41.67;;;;;;;;;;6280367;28;20067;-64
2022/11/14 17:42:23;;;;;;;183.55;53.90;;;;;;;;;;6281684;28;20056;-62
2022/11/14 17:45:24;;;;;;;194.55;55.00;;;;;;;;;;6280419;28;20543;-64
2022/11/14 17:48:25;;;;;;;172.80;51.08;;;;;;;;;;6281632;28;20494;-63
2022/11/14 17:51:26;;;;;;;164.88;47.88;;;;;;;;;;6280094;28;20391;-62
2022/11/14 17:54:26;;;;;;;149.00;44.08;;;;;;;;;;6280659;28;20048;-65
2022/11/14 17:57:27;;;;;;;166.55;45.55;;;;;;;;;;6284531;28;20137;-63
2022/11/14 18:00:27;;;;;;;156.20;43.70;;;;;;;;;;6284300;28;20053;-66